Holloman AFB, New Mexico
Current Conditions -  °F | °C
As of 3:58 AM on Friday 24 Oct 2014 (Local Time) from KHMN Reporting Station
Clear Clear  
Wind Chill: 51°   Ceiling: Unl
Heat Index: 51°   Visibility: 10mi
Dew Point: 45°   Wind: 3mph
Humidity: 82%   Direction: 310°NW
Pressure: 30.2"   Gusts: NA
Location:  32.85°N, 106.1°W
Report Text: KHMN 240958Z AUTO 31003KT 10SM CLR 10/07 A3020 RMK AO2 SLP175 T01030073 $
Loading
Personal Weather Stations






























Interactive Weather Map
Tropical Storm Tracking
New forecast layout! Learn more

10-Day Weather Forecast

Advertisements
Track Severe Weather on mobile